Terminal Aerodrome Forecast
Issued by NWS

Home | Current Version | Previous Version | Text Only | Print | Product List | Glossary On
Versions: 1 2 3 4 5 6 7 8 9 10 11 12 13 14 15 16
331
FTUS44 KTSA 261725
TAFBVO
TAF
KBVO 261725Z 2618/2718 VRB04KT P6SM BKN250
     FM262100 13012G18KT P6SM SCT060 BKN250
     FM270000 10010KT P6SM VCTS BKN035CB
      TEMPO 2701/2704 3SM TSRA OVC015CB
     FM270400 08008KT P6SM VCTS BKN030CB
     FM270900 34007KT P6SM OVC015=

USA.gov is the U.S. government's official web portal to all federal, state and local government web resources and services.